Time;durP1;ratioP1;P1;durP2;ratioP2;P2;SDS_P1;SDS_P2;PMS_P1;PMS_P2;Temp;Humidity;BMP_temperature;BMP_pressure;BME280_temperature;BME280_humidity;BME280_pressure;Samples;Min_cycle;Max_cycle;Signal;HPM_P1;HPM_P2
2023/12/22 00:00:52;;;;;;;4.20;2.37;;;;;;;12.45;60.86;97396.66;8364387;23;20283;-81
2023/12/22 00:04:15;;;;;;;3.83;2.47;;;;;;;12.23;60.51;97388.50;8363898;23;20299;-81
2023/12/22 00:07:36;;;;;;;5.33;2.50;;;;;;;12.47;60.10;97402.59;8364161;23;20208;-81
2023/12/22 00:10:58;;;;;;;2.13;1.83;;;;;;;12.18;59.85;97398.44;8362922;23;20617;-81
2023/12/22 00:14:20;;;;;;;5.93;2.20;;;;;;;12.52;58.03;97408.09;8364037;23;20523;-81
2023/12/22 00:17:41;;;;;;;3.97;2.60;;;;;;;12.60;57.59;97391.41;8363646;23;20265;-81
2023/12/22 00:21:05;;;;;;;6.10;2.10;;;;;;;12.80;56.66;97397.06;8364019;23;20789;-81
2023/12/22 00:24:26;;;;;;;3.37;2.03;;;;;;;11.83;59.49;97401.44;8362509;23;20217;-81
2023/12/22 00:27:48;;;;;;;5.43;2.33;;;;;;;12.16;58.30;97390.56;8363813;23;20259;-81
2023/12/22 00:31:09;;;;;;;3.40;2.13;;;;;;;12.55;57.65;97412.97;8362933;23;20280;-80
2023/12/22 00:34:30;;;;;;;3.80;2.43;;;;;;;12.34;58.72;97417.28;8363217;23;20192;-81
2023/12/22 00:37:53;;;;;;;4.60;2.13;;;;;;;12.39;59.68;97435.50;8363999;23;20256;-81
2023/12/22 00:41:15;;;;;;;5.77;2.87;;;;;;;11.89;62.08;97469.84;8362610;23;20210;-81
2023/12/22 00:44:37;;;;;;;3.73;2.20;;;;;;;11.58;63.36;97449.59;8363994;23;20205;-81
2023/12/22 00:47:58;;;;;;;3.73;2.17;;;;;;;11.55;63.71;97431.19;8363907;23;20182;-78
2023/12/22 00:51:20;;;;;;;4.97;2.20;;;;;;;11.55;63.66;97471.66;8362303;23;20229;-78
2023/12/22 00:54:43;;;;;;;3.20;2.53;;;;;;;11.48;62.13;97502.56;8362261;23;20395;-78
2023/12/22 00:58:04;;;;;;;2.30;1.67;;;;;;;10.51;62.55;97517.03;8362929;23;20209;-80
2023/12/22 01:01:26;;;;;;;1.80;1.70;;;;;;;11.26;60.06;97531.28;8362853;23;20205;-80
2023/12/22 01:04:47;;;;;;;1.57;1.47;;;;;;;11.02;59.27;97521.63;8363609;23;20216;-80
2023/12/22 01:08:08;;;;;;;1.80;1.70;;;;;;;10.92;59.70;97533.03;8361490;23;20257;-80
2023/12/22 01:11:31;;;;;;;1.73;1.63;;;;;;;11.27;59.57;97514.84;8360632;23;20280;-80
2023/12/22 01:14:53;;;;;;;1.60;1.60;;;;;;;11.36;59.32;97505.31;8363373;23;20261;-80
2023/12/22 01:18:14;;;;;;;2.37;2.07;;;;;;;11.30;58.25;97486.56;8363370;23;20646;-81
2023/12/22 01:21:36;;;;;;;2.00;1.90;;;;;;;11.49;58.72;97491.53;8362985;23;20291;-81
2023/12/22 01:24:57;;;;;;;1.90;1.80;;;;;;;10.93;59.97;97485.31;8362995;23;20197;-81
2023/12/22 01:28:20;;;;;;;1.97;1.87;;;;;;;11.53;59.02;97479.19;8363727;23;20558;-81
2023/12/22 01:31:42;;;;;;;2.20;1.90;;;;;;;11.29;59.73;97480.38;8361477;23;20225;-81
2023/12/22 01:35:09;;;;;;;4.23;2.20;;;;;;;11.43;58.83;97460.13;8364281;23;20280;-80
2023/12/22 01:38:31;;;;;;;3.17;2.07;;;;;;;11.19;60.02;97476.66;8364358;23;20602;-80
2023/12/22 01:41:52;;;;;;;2.10;1.90;;;;;;;10.96;60.78;97474.88;8362987;23;20331;-80
2023/12/22 01:45:16;;;;;;;3.63;1.80;;;;;;;11.30;60.34;97479.31;8363297;23;20211;-80
2023/12/22 01:48:38;;;;;;;4.00;1.97;;;;;;;10.93;60.79;97448.38;8362677;23;20279;-80
2023/12/22 01:52:00;;;;;;;2.23;2.00;;;;;;;10.77;61.45;97478.81;8362951;23;20292;-80
2023/12/22 01:55:24;;;;;;;2.23;2.10;;;;;;;11.09;61.47;97476.47;8363784;23;20312;-80
2023/12/22 01:58:46;;;;;;;3.17;2.07;;;;;;;10.71;62.64;97492.41;8363945;23;20257;-80
2023/12/22 02:02:09;;;;;;;4.13;2.47;;;;;;;11.08;61.96;97480.22;8366756;23;20647;-82
2023/12/22 02:05:30;;;;;;;4.87;2.40;;;;;;;11.06;61.58;97493.94;8364752;23;20271;-81
2023/12/22 02:08:52;;;;;;;5.77;2.43;;;;;;;10.93;60.66;97471.84;8362791;23;20622;-79
2023/12/22 02:12:13;;;;;;;4.67;2.30;;;;;;;11.63;58.65;97475.88;8363229;23;20389;-80
2023/12/22 02:15:35;;;;;;;3.40;2.10;;;;;;;11.42;57.90;97490.88;8363671;23;20264;-80
2023/12/22 02:18:58;;;;;;;5.60;2.30;;;;;;;11.96;55.92;97478.59;8362151;23;20652;-80
2023/12/22 02:22:20;;;;;;;3.30;1.90;;;;;;;11.28;56.03;97494.91;8363949;23;20237;-81
2023/12/22 02:25:43;;;;;;;2.97;1.80;;;;;;;11.86;55.49;97487.34;8362613;23;20272;-80
2023/12/22 02:29:05;;;;;;;2.63;1.77;;;;;;;11.71;55.22;97500.59;8361462;23;20263;-81
2023/12/22 02:32:31;;;;;;;2.70;1.83;;;;;;;11.23;56.27;97502.88;8361501;23;20331;-80
2023/12/22 02:35:53;;;;;;;3.67;2.17;;;;;;;11.47;55.77;97509.03;8362014;23;20577;-81
2023/12/22 02:39:15;;;;;;;5.33;2.00;;;;;;;11.89;54.46;97515.75;8363034;23;20749;-81
2023/12/22 02:42:39;;;;;;;3.80;2.37;;;;;;;11.64;55.26;97528.81;8364057;23;20288;-81
2023/12/22 02:46:00;;;;;;;6.10;2.27;;;;;;;11.53;55.56;97513.44;8364078;23;20701;-81
2023/12/22 02:49:22;;;;;;;3.70;1.70;;;;;;;11.47;55.64;97509.03;8362517;23;20223;-81
2023/12/22 02:52:43;;;;;;;3.63;1.87;;;;;;;11.85;54.52;97483.00;8362041;23;20233;-81
2023/12/22 02:56:05;;;;;;;3.73;1.90;;;;;;;11.32;55.60;97481.75;8364513;23;20203;-81
2023/12/22 02:59:28;;;;;;;1.83;1.70;;;;;;;11.27;55.65;97493.28;8363178;23;20221;-81
2023/12/22 03:02:50;;;;;;;5.37;2.23;;;;;;;11.45;55.29;97514.66;8363539;23;20727;-79
2023/12/22 03:06:11;;;;;;;4.17;2.20;;;;;;;11.99;53.79;97491.63;8362398;23;20195;-80
2023/12/22 03:09:34;;;;;;;4.80;2.00;;;;;;;11.86;54.14;97511.66;8361116;23;20283;-80
2023/12/22 03:12:55;;;;;;;4.23;2.20;;;;;;;11.84;54.22;97500.28;8362359;23;20236;-79
2023/12/22 03:16:18;;;;;;;3.77;2.10;;;;;;;11.58;54.87;97494.66;8364295;23;20697;-79
2023/12/22 03:19:40;;;;;;;6.30;2.70;;;;;;;11.24;55.50;97499.16;8363090;23;20240;-80
2023/12/22 03:23:01;;;;;;;3.70;2.03;;;;;;;11.56;55.13;97483.28;8363399;23;20297;-79
2023/12/22 03:26:23;;;;;;;2.40;1.90;;;;;;;11.23;54.99;97500.19;8362326;23;20213;-79
2023/12/22 03:29:44;;;;;;;5.83;2.57;;;;;;;11.75;53.85;97499.03;8362970;23;20635;-79
2023/12/22 03:33:07;;;;;;;4.50;2.13;;;;;;;11.68;53.40;97500.28;8363671;23;20285;-79
2023/12/22 03:36:29;;;;;;;4.17;2.40;;;;;;;11.50;53.30;97486.94;8376815;23;20185;-79
2023/12/22 03:39:50;;;;;;;3.40;2.00;;;;;;;11.41;53.16;97515.38;8362545;23;20237;-79
2023/12/22 03:43:12;;;;;;;4.67;2.43;;;;;;;11.61;52.58;97521.19;8362442;23;20241;-80
2023/12/22 03:46:33;;;;;;;3.30;2.17;;;;;;;12.18;51.09;97509.19;8363320;23;20231;-80
2023/12/22 03:49:56;;;;;;;3.93;2.13;;;;;;;11.88;52.20;97541.13;8361561;23;20328;-79
2023/12/22 03:53:18;;;;;;;3.43;2.30;;;;;;;11.52;52.87;97536.91;8363692;23;20233;-82
2023/12/22 03:56:39;;;;;;;3.83;2.00;;;;;;;11.54;52.99;97528.59;8364762;23;21008;-79
2023/12/22 04:00:00;;;;;;;3.87;2.20;;;;;;;11.90;52.62;97515.50;8363490;23;20292;-82
2023/12/22 04:03:22;;;;;;;5.57;2.43;;;;;;;11.64;53.12;97524.22;8363457;23;20281;-80
2023/12/22 04:06:45;;;;;;;4.23;2.20;;;;;;;11.75;52.65;97519.84;8365493;23;20213;-80
2023/12/22 04:10:07;;;;;;;2.63;2.00;;;;;;;11.57;54.51;97539.72;8362645;23;20645;-79
2023/12/22 04:13:29;;;;;;;4.67;2.20;;;;;;;10.98;58.53;97579.81;8363484;23;20233;-80
2023/12/22 04:16:52;;;;;;;2.20;2.00;;;;;;;10.90;60.64;97593.63;8364056;23;20654;-79
2023/12/22 04:20:14;;;;;;;4.27;1.80;;;;;;;10.23;63.78;97570.81;8362986;23;20209;-80
2023/12/22 04:23:37;;;;;;;2.17;1.97;;;;;;;10.43;63.06;97556.97;8370155;23;20691;-80
2023/12/22 04:26:58;;;;;;;3.03;2.17;;;;;;;10.96;62.68;97569.25;8369325;23;20193;-81
2023/12/22 04:30:20;;;;;;;9.90;2.77;;;;;;;11.07;62.68;97546.00;8368233;23;20182;-81
2023/12/22 04:33:41;;;;;;;4.77;2.10;;;;;;;11.14;62.82;97544.81;8369930;23;20682;-80
2023/12/22 04:37:03;;;;;;;5.53;2.50;;;;;;;10.94;62.93;97536.31;8368990;23;20255;-81
2023/12/22 04:40:27;;;;;;;5.60;2.43;;;;;;;10.64;63.69;97543.72;8366773;23;20748;-80
2023/12/22 04:43:49;;;;;;;4.50;2.43;;;;;;;10.97;61.78;97551.16;8371364;23;20797;-81
2023/12/22 04:47:12;;;;;;;6.43;2.70;;;;;;;10.51;61.76;97548.56;8370223;23;20190;-80
2023/12/22 04:50:34;;;;;;;11.93;3.47;;;;;;;10.40;61.84;97573.63;8368904;23;20178;-80
2023/12/22 04:53:55;;;;;;;3.53;2.60;;;;;;;10.72;60.42;97581.13;8369022;23;20259;-80
2023/12/22 04:57:18;;;;;;;2.97;2.10;;;;;;;10.60;59.29;97583.00;8369486;23;20605;-80
2023/12/22 05:00:42;;;;;;;4.00;2.13;;;;;;;10.93;58.33;97582.38;8367751;23;20237;-80
2023/12/22 05:04:03;;;;;;;3.37;1.93;;;;;;;10.63;58.59;97534.00;8369765;23;20266;-80
2023/12/22 05:07:25;;;;;;;2.70;2.10;;;;;;;11.04;58.22;97566.16;8370383;23;20304;-80
2023/12/22 05:10:46;;;;;;;4.13;2.30;;;;;;;11.49;56.83;97568.97;8365187;23;20261;-80
2023/12/22 05:14:10;;;;;;;4.57;2.20;;;;;;;11.39;56.23;97553.41;8371074;23;20262;-80
2023/12/22 05:17:32;;;;;;;3.27;2.10;;;;;;;11.21;56.70;97582.44;8372963;23;20589;-80
2023/12/22 05:20:54;;;;;;;5.53;3.10;;;;;;;11.07;57.17;97597.25;8369444;23;20524;-80
2023/12/22 05:24:15;;;;;;;5.67;2.80;;;;;;;11.48;56.58;97578.13;8364728;23;20267;-80
2023/12/22 05:27:37;;;;;;;5.37;2.63;;;;;;;11.04;57.66;97586.94;8363371;23;20553;-80
2023/12/22 05:30:59;;;;;;;5.20;3.03;;;;;;;11.46;56.31;97586.47;8361974;23;20615;-81
2023/12/22 05:34:21;;;;;;;7.70;3.00;;;;;;;11.10;57.12;97576.00;8362962;23;20264;-80
2023/12/22 05:37:42;;;;;;;5.90;2.87;;;;;;;11.11;57.07;97574.94;8362602;23;20185;-81
2023/12/22 05:41:04;;;;;;;3.57;2.60;;;;;;;11.44;56.36;97585.88;8361813;23;20237;-79
2023/12/22 05:44:29;;;;;;;7.73;2.57;;;;;;;11.52;55.90;97598.19;8364262;23;20312;-84
2023/12/22 05:47:52;;;;;;;5.47;2.90;;;;;;;11.56;56.18;97613.66;8363559;23;20221;-81
2023/12/22 05:51:13;;;;;;;7.97;3.03;;;;;;;11.24;57.65;97601.69;8362836;23;20281;-80
2023/12/22 05:54:35;;;;;;;6.77;3.00;;;;;;;10.99;58.64;97584.94;8362699;23;20649;-81
2023/12/22 05:57:56;;;;;;;9.33;3.30;;;;;;;11.06;57.91;97601.00;8362159;23;20232;-81
2023/12/22 06:01:18;;;;;;;8.90;2.90;;;;;;;11.11;58.12;97596.53;8361917;23;20360;-81
2023/12/22 06:04:41;;;;;;;7.13;2.80;;;;;;;10.97;56.79;97572.75;8361710;23;20189;-80
2023/12/22 06:08:03;;;;;;;12.40;3.20;;;;;;;11.40;56.58;97603.59;8361322;23;20182;-81
2023/12/22 06:11:24;;;;;;;8.53;3.10;;;;;;;11.67;55.10;97612.00;8362021;23;20281;-81
2023/12/22 06:14:46;;;;;;;7.80;2.73;;;;;;;11.34;55.57;97607.25;8362449;23;20189;-81
2023/12/22 06:18:07;;;;;;;9.10;2.90;;;;;;;10.93;55.28;97612.06;8362379;23;20279;-81
2023/12/22 06:21:30;;;;;;;7.70;2.93;;;;;;;11.32;54.60;97635.53;8361820;23;20335;-80
2023/12/22 06:24:51;;;;;;;5.67;2.40;;;;;;;11.27;53.93;97630.88;8361484;23;20638;-80
2023/12/22 06:28:13;;;;;;;8.13;3.20;;;;;;;11.74;53.44;97645.91;8364107;23;20212;-80
2023/12/22 06:31:34;;;;;;;9.33;3.10;;;;;;;11.65;54.31;97679.75;8360543;23;20251;-80
2023/12/22 06:34:56;;;;;;;5.90;2.77;;;;;;;12.05;54.81;97679.72;8363031;23;20223;-80
2023/12/22 06:38:19;;;;;;;9.63;2.93;;;;;;;11.83;55.04;97667.94;8362791;23;20194;-80
2023/12/22 06:41:41;;;;;;;8.37;3.73;;;;;;;11.86;54.74;97681.78;8360538;23;20220;-81
2023/12/22 06:45:02;;;;;;;6.27;2.93;;;;;;;11.87;54.49;97694.22;8362912;23;20185;-80
2023/12/22 06:48:25;;;;;;;4.87;2.63;;;;;;;11.79;53.95;97685.66;8362863;23;20705;-80
2023/12/22 06:51:46;;;;;;;6.70;2.90;;;;;;;11.63;54.84;97699.94;8362496;23;20355;-82
2023/12/22 06:55:09;;;;;;;10.20;3.60;;;;;;;11.67;53.93;97699.22;8360213;23;20271;-79
2023/12/22 06:58:32;;;;;;;13.40;3.30;;;;;;;11.66;54.01;97696.75;8362573;23;20206;-77
2023/12/22 07:01:55;;;;;;;8.93;3.60;;;;;;;11.71;53.56;97703.09;8364005;23;20210;-79
2023/12/22 07:05:36;;;;;;;9.47;2.87;;;;;;;11.58;54.23;97697.94;8363199;23;20193;-79
2023/12/22 07:08:58;;;;;;;9.63;3.00;;;;;;;11.61;54.26;97708.28;8365396;23;20166;-76
2023/12/22 07:12:21;;;;;;;5.93;2.53;;;;;;;11.55;53.46;97703.78;8363315;23;20296;-81
2023/12/22 07:15:42;;;;;;;5.90;3.10;;;;;;;11.65;54.04;97690.56;8362553;23;20225;-81
2023/12/22 07:19:04;;;;;;;7.07;2.80;;;;;;;11.96;53.33;97727.91;8363287;23;20193;-79
2023/12/22 07:22:25;;;;;;;6.80;3.03;;;;;;;11.76;54.18;97734.78;8364282;23;20213;-80
2023/12/22 07:25:48;;;;;;;5.53;2.40;;;;;;;11.71;54.64;97729.25;8361005;23;20635;-78
2023/12/22 07:29:10;;;;;;;7.50;2.60;;;;;;;11.87;54.32;97742.03;8360865;23;20626;-79
2023/12/22 07:32:32;;;;;;;7.17;2.77;;;;;;;12.11;54.09;97766.00;8361950;23;20695;-77
2023/12/22 07:35:54;;;;;;;9.43;2.90;;;;;;;12.13;54.18;97757.69;8362441;23;20185;-80
2023/12/22 07:39:15;;;;;;;10.20;3.00;;;;;;;12.19;54.21;97762.94;8362749;23;20192;-79
2023/12/22 07:42:37;;;;;;;10.00;2.80;;;;;;;12.06;54.42;97751.59;8360586;23;20241;-79
2023/12/22 07:46:00;;;;;;;5.73;3.07;;;;;;;11.99;54.64;97756.31;8362303;23;20185;-79
2023/12/22 07:49:21;;;;;;;6.13;2.80;;;;;;;11.98;54.76;97758.19;8361201;23;20272;-78
2023/12/22 07:52:43;;;;;;;8.37;2.70;;;;;;;12.03;54.31;97762.91;8363035;23;20284;-77
2023/12/22 07:56:05;;;;;;;5.83;2.40;;;;;;;11.76;55.19;97761.78;8363341;23;20287;-78
2023/12/22 07:59:27;;;;;;;8.53;2.97;;;;;;;12.01;54.75;97762.28;8362523;23;20192;-78
2023/12/22 08:02:50;;;;;;;5.70;2.30;;;;;;;12.22;54.22;97754.34;8363803;23;20683;-78
2023/12/22 08:06:13;;;;;;;4.97;2.60;;;;;;;12.32;54.02;97741.03;8363590;23;20259;-77
2023/12/22 08:09:35;;;;;;;3.80;2.40;;;;;;;12.00;55.29;97766.06;8363770;23;20273;-79
2023/12/22 08:12:56;;;;;;;3.27;2.30;;;;;;;11.89;55.90;97775.00;8361628;23;20341;-77
2023/12/22 08:16:18;;;;;;;5.00;2.47;;;;;;;11.93;57.37;97771.59;8363905;23;20635;-78
2023/12/22 08:19:42;;;;;;;8.07;2.60;;;;;;;11.83;58.21;97778.66;8363314;23;20215;-79
2023/12/22 08:23:04;;;;;;;6.10;3.13;;;;;;;12.05;58.43;97777.78;8363703;23;20679;-79
2023/12/22 08:26:25;;;;;;;5.70;2.63;;;;;;;11.74;59.91;97783.59;8363405;23;20186;-79
2023/12/22 08:29:47;;;;;;;5.90;2.43;;;;;;;11.95;60.22;97787.56;8360731;23;20304;-79
2023/12/22 08:33:08;;;;;;;11.23;3.37;;;;;;;12.28;59.44;97795.81;8363577;23;20288;-78
2023/12/22 08:36:31;;;;;;;6.30;2.67;;;;;;;12.32;59.25;97788.84;8363367;23;20239;-79
2023/12/22 08:39:53;;;;;;;7.03;2.67;;;;;;;12.18;60.00;97787.50;8363173;23;20198;-78
2023/12/22 08:43:15;;;;;;;7.37;3.00;;;;;;;12.20;60.18;97779.97;8363595;23;20210;-79
2023/12/22 08:46:36;;;;;;;7.80;2.97;;;;;;;11.81;61.73;97784.28;8361979;23;20188;-78
2023/12/22 08:49:58;;;;;;;9.37;3.17;;;;;;;11.95;62.05;97791.09;8362634;23;20264;-79
2023/12/22 08:53:21;;;;;;;6.50;3.67;;;;;;;11.82;62.65;97788.66;8363425;23;20232;-78
2023/12/22 08:56:42;;;;;;;5.47;2.97;;;;;;;11.78;63.16;97775.84;8363177;23;20201;-77
2023/12/22 09:00:05;;;;;;;13.40;3.63;;;;;;;12.07;62.46;97785.66;8363315;23;20764;-79
2023/12/22 09:03:26;;;;;;;8.23;3.60;;;;;;;12.07;61.92;97783.78;8361498;23;20213;-85
2023/12/22 09:06:48;;;;;;;4.80;3.10;;;;;;;12.29;61.26;97786.66;8363366;23;20188;-80
2023/12/22 09:10:12;;;;;;;11.97;4.27;;;;;;;12.21;61.27;97770.81;8363092;23;20217;-79
2023/12/22 09:13:35;;;;;;;7.30;3.03;;;;;;;11.53;61.91;97789.59;8363236;23;20233;-82
2023/12/22 09:16:57;;;;;;;10.00;3.60;;;;;;;11.59;62.40;97767.09;8364503;23;20514;-81
2023/12/22 09:20:18;;;;;;;9.93;4.07;;;;;;;10.95;62.09;97704.31;8362293;23;20185;-82
2023/12/22 09:23:44;;;;;;;12.20;3.63;;;;;;;11.86;59.63;97768.19;8363663;23;20260;-79
2023/12/22 09:27:07;;;;;;;11.03;4.20;;;;;;;11.69;58.67;97777.28;8362832;23;20220;-77
2023/12/22 09:30:28;;;;;;;10.40;3.00;;;;;;;11.32;59.22;97810.94;8363018;23;20700;-77
2023/12/22 09:33:50;;;;;;;13.13;3.33;;;;;;;11.29;58.90;97816.81;8363266;23;20226;-78
2023/12/22 09:37:11;;;;;;;8.73;3.33;;;;;;;11.69;57.91;97826.69;8361573;23;20765;-81
2023/12/22 09:40:34;;;;;;;10.90;3.23;;;;;;;11.80;58.25;97830.47;8362123;23;20243;-77
2023/12/22 09:43:59;;;;;;;11.90;4.43;;;;;;;12.02;57.03;97821.50;8363159;23;20237;-79
2023/12/22 09:47:22;;;;;;;9.53;3.40;;;;;;;11.72;56.40;97777.63;8363621;23;20186;-78
2023/12/22 09:50:44;;;;;;;11.20;4.70;;;;;;;12.33;55.92;97812.16;8361666;23;20267;-81
2023/12/22 09:54:06;;;;;;;10.93;3.27;;;;;;;12.21;55.49;97809.47;8361278;23;20209;-78
2023/12/22 09:57:28;;;;;;;8.63;3.67;;;;;;;12.46;55.19;97825.38;8360202;23;20222;-82
2023/12/22 10:00:52;;;;;;;16.67;4.63;;;;;;;12.45;55.03;97834.56;8356323;23;20781;-81
2023/12/22 10:04:13;;;;;;;10.60;4.00;;;;;;;12.04;55.52;97834.78;8361423;23;20241;-78
2023/12/22 10:07:35;;;;;;;10.83;3.40;;;;;;;12.60;54.35;97821.31;8361740;23;20196;-77
2023/12/22 10:10:57;;;;;;;12.93;4.10;;;;;;;12.69;53.87;97806.34;8361772;23;20185;-77
2023/12/22 10:14:22;;;;;;;11.37;3.20;;;;;;;12.78;52.54;97808.41;8361243;23;20281;-81
2023/12/22 10:17:45;;;;;;;13.63;3.50;;;;;;;12.16;53.93;97795.03;8361649;23;20186;-77
2023/12/22 10:21:06;;;;;;;10.57;4.17;;;;;;;12.15;54.20;97793.41;8361329;23;20288;-79
2023/12/22 10:24:42;;;;;;;12.17;4.10;;;;;;;12.19;53.51;97760.25;8363128;23;20268;-77
2023/12/22 10:28:04;;;;;;;10.80;4.23;;;;;;;12.47;53.06;97754.84;8362539;23;20185;-78
2023/12/22 10:31:26;;;;;;;13.30;3.60;;;;;;;12.84;52.51;97749.81;8363424;23;20690;-78
2023/12/22 10:34:49;;;;;;;15.97;5.33;;;;;;;12.71;51.83;97755.53;8362751;23;20533;-77
2023/12/22 10:38:11;;;;;;;9.33;3.27;;;;;;;12.49;52.45;97754.59;8362158;23;20321;-79
2023/12/22 10:41:32;;;;;;;12.10;4.17;;;;;;;12.95;51.68;97749.78;8361441;23;20244;-77
2023/12/22 10:44:54;;;;;;;10.53;4.50;;;;;;;12.73;52.23;97750.69;8362466;23;20677;-77
2023/12/22 10:48:15;;;;;;;9.00;3.47;;;;;;;12.64;52.58;97752.16;8361850;23;20265;-79
2023/12/22 10:51:39;;;;;;;15.67;3.57;;;;;;;12.26;53.66;97739.31;8361757;23;20239;-77
2023/12/22 10:55:00;;;;;;;8.90;3.77;;;;;;;12.35;53.89;97726.22;8361968;23;20271;-78
2023/12/22 10:58:22;;;;;;;11.90;4.03;;;;;;;12.56;53.20;97722.84;8360695;23;20186;-77
2023/12/22 11:01:43;;;;;;;8.77;2.90;;;;;;;12.51;53.72;97717.34;8361061;23;20348;-77
2023/12/22 11:05:06;;;;;;;12.10;3.70;;;;;;;12.59;53.77;97714.22;8361874;23;20214;-77
2023/12/22 11:08:29;;;;;;;9.97;3.20;;;;;;;12.63;54.13;97709.97;8362385;23;20845;-77
2023/12/22 11:11:52;;;;;;;8.10;3.23;;;;;;;12.36;54.85;97712.47;8361466;23;20209;-76
2023/12/22 11:15:15;;;;;;;6.40;2.77;;;;;;;12.40;55.89;97710.91;8361658;23;20232;-77
2023/12/22 11:18:38;;;;;;;6.83;2.50;;;;;;;12.46;55.15;97714.53;8362205;23;20186;-78
2023/12/22 11:22:00;;;;;;;8.67;3.10;;;;;;;12.87;54.24;97701.44;8362372;23;20265;-79
2023/12/22 11:25:23;;;;;;;6.70;2.40;;;;;;;12.26;55.85;97697.94;8362497;23;20920;-79
2023/12/22 11:28:46;;;;;;;10.80;3.30;;;;;;;12.82;55.69;97690.56;8363577;23;20268;-79
2023/12/22 11:32:08;;;;;;;5.93;2.03;;;;;;;12.71;55.71;97680.66;8363483;23;20198;-79
2023/12/22 11:35:30;;;;;;;6.03;2.43;;;;;;;12.72;55.85;97671.47;8363152;23;20630;-79
2023/12/22 11:38:51;;;;;;;2.67;2.20;;;;;;;12.47;56.96;97660.25;8362905;23;20627;-79
2023/12/22 11:42:17;;;;;;;6.73;2.20;;;;;;;12.18;58.65;97671.31;8363508;23;20210;-82
2023/12/22 11:45:38;;;;;;;3.63;2.13;;;;;;;12.48;57.70;97652.94;8364666;23;20451;-81
2023/12/22 11:49:00;;;;;;;4.03;2.00;;;;;;;12.37;58.03;97661.91;8366411;23;20264;-79
2023/12/22 11:52:28;;;;;;;3.70;2.30;;;;;;;12.25;58.18;97650.34;8363882;23;20206;-79
2023/12/22 11:56:00;;;;;;;8.60;2.70;;;;;;;12.28;57.81;97642.59;8364204;23;20726;-79
2023/12/22 11:59:23;;;;;;;4.77;2.00;;;;;;;12.59;56.97;97627.69;8363105;23;20188;-78
2023/12/22 12:02:55;;;;;;;2.23;1.87;;;;;;;12.52;57.35;97629.75;8362129;23;20241;-77
2023/12/22 12:06:32;;;;;;;3.73;2.23;;;;;;;12.29;58.83;97624.50;8362199;23;20684;-78
2023/12/22 12:09:54;;;;;;;1.63;1.53;;;;;;;12.19;59.19;97616.22;8361494;23;20166;-79
2023/12/22 12:13:16;;;;;;;3.60;2.00;;;;;;;12.56;58.69;97614.69;8363470;23;20241;-79
2023/12/22 12:16:40;;;;;;;3.03;2.27;;;;;;;12.61;58.56;97606.63;8363809;23;20210;-81
2023/12/22 12:20:01;;;;;;;1.90;1.80;;;;;;;12.18;59.86;97598.38;8361027;23;20189;-78
2023/12/22 12:23:24;;;;;;;2.27;2.00;;;;;;;12.26;59.70;97604.19;8362557;23;20288;-80
2023/12/22 12:26:46;;;;;;;6.50;2.60;;;;;;;12.33;59.14;97563.50;8361746;23;20225;-79
2023/12/22 12:30:12;;;;;;;3.43;2.17;;;;;;;12.43;58.62;97577.16;8361607;23;20213;-79
2023/12/22 12:33:36;;;;;;;3.13;1.93;;;;;;;12.47;58.68;97575.59;8363468;23;20229;-77
2023/12/22 12:36:58;;;;;;;2.63;2.13;;;;;;;12.42;58.07;97575.53;8362083;23;20264;-81
2023/12/22 12:40:21;;;;;;;4.37;2.33;;;;;;;12.65;58.09;97588.88;8360757;23;20201;-81
2023/12/22 12:43:43;;;;;;;3.90;2.33;;;;;;;12.49;58.22;97574.28;8362667;23;20293;-79
2023/12/22 12:47:12;;;;;;;2.47;2.23;;;;;;;12.60;57.80;97564.44;8363297;23;20635;-81
2023/12/22 12:50:36;;;;;;;3.30;2.77;;;;;;;12.35;58.44;97553.25;8362509;23;20541;-80
2023/12/22 12:53:57;;;;;;;2.83;2.63;;;;;;;12.65;58.10;97556.41;8359163;23;20212;-81
2023/12/22 12:57:19;;;;;;;2.40;2.20;;;;;;;12.02;59.03;97512.72;8363190;23;20598;-81
2023/12/22 13:00:41;;;;;;;1.90;1.80;;;;;;;11.97;59.79;97532.38;8363337;23;20199;-79
2023/12/22 13:04:03;;;;;;;2.00;1.90;;;;;;;12.02;59.81;97510.00;8363226;23;20632;-81
2023/12/22 13:07:27;;;;;;;2.97;2.07;;;;;;;12.29;59.29;97556.94;8362400;23;20190;-81
2023/12/22 13:10:48;;;;;;;1.80;1.70;;;;;;;12.42;59.30;97549.31;8360433;23;20620;-81
2023/12/22 13:14:10;;;;;;;1.70;1.60;;;;;;;12.41;59.98;97550.41;8356801;23;20231;-79
2023/12/22 13:17:32;;;;;;;2.93;2.00;;;;;;;12.58;59.34;97539.56;8361235;23;20205;-80
2023/12/22 13:20:53;;;;;;;3.13;2.70;;;;;;;12.90;58.66;97554.88;8358976;23;20188;-80
2023/12/22 13:24:17;;;;;;;3.37;2.60;;;;;;;12.49;59.82;97547.25;8361266;23;20225;-81
2023/12/22 13:27:46;;;;;;;2.30;2.10;;;;;;;12.79;59.27;97533.34;8361601;23;20193;-81
2023/12/22 13:31:11;;;;;;;2.33;2.17;;;;;;;12.78;59.13;97540.66;8361687;23;20205;-80
2023/12/22 13:34:33;;;;;;;1.60;1.50;;;;;;;12.99;59.21;97547.19;8363410;23;20166;-81
2023/12/22 13:37:55;;;;;;;2.10;1.87;;;;;;;12.79;59.14;97536.88;8363900;23;20185;-81
2023/12/22 13:41:18;;;;;;;1.80;1.70;;;;;;;12.99;59.15;97555.31;8360891;23;20299;-81
2023/12/22 13:44:43;;;;;;;1.83;1.40;;;;;;;12.58;60.12;97517.94;8359936;23;20292;-80
2023/12/22 13:48:06;;;;;;;1.30;1.30;;;;;;;13.35;58.71;97538.44;8365031;23;20197;-80
2023/12/22 13:51:27;;;;;;;1.70;1.60;;;;;;;13.24;59.00;97542.09;8363455;23;20229;-81
2023/12/22 13:54:49;;;;;;;1.30;1.30;;;;;;;13.40;58.44;97523.06;8365737;23;20662;-81
2023/12/22 13:58:12;;;;;;;1.20;1.20;;;;;;;13.42;58.58;97542.59;8365133;23;20500;-80
2023/12/22 14:01:33;;;;;;;1.33;1.23;;;;;;;12.84;60.08;97541.53;8362640;23;20237;-78
2023/12/22 14:04:55;;;;;;;1.80;1.70;;;;;;;13.19;59.40;97561.81;8362647;23;20809;-80
2023/12/22 14:08:17;;;;;;;1.20;1.20;;;;;;;13.27;59.25;97560.56;8362149;23;20213;-80
2023/12/22 14:11:38;;;;;;;1.23;1.20;;;;;;;13.33;58.81;97557.63;8362637;23;20210;-81
2023/12/22 14:15:01;;;;;;;1.40;1.30;;;;;;;13.31;59.15;97557.09;8364439;23;20178;-80
2023/12/22 14:18:22;;;;;;;1.97;1.87;;;;;;;13.49;58.73;97547.78;8363298;23;20189;-80
2023/12/22 14:21:44;;;;;;;2.30;2.10;;;;;;;13.72;58.22;97558.34;8363253;23;20229;-78
2023/12/22 14:25:06;;;;;;;1.57;1.47;;;;;;;13.71;58.00;97564.84;8364731;23;20643;-80
2023/12/22 14:28:28;;;;;;;1.40;1.37;;;;;;;13.39;58.41;97569.38;8365179;23;20194;-80
2023/12/22 14:31:51;;;;;;;2.20;2.00;;;;;;;13.71;58.10;97568.38;8361527;23;20289;-80
2023/12/22 14:35:13;;;;;;;2.87;2.60;;;;;;;13.68;57.79;97570.78;8363949;23;20190;-81
2023/12/22 14:38:34;;;;;;;3.10;2.17;;;;;;;13.43;58.31;97578.59;8359983;23;20186;-80
2023/12/22 14:41:56;;;;;;;3.53;2.60;;;;;;;13.50;58.26;97582.75;8358720;23;20351;-79
2023/12/22 14:45:17;;;;;;;3.00;2.70;;;;;;;13.57;58.25;97590.69;8364362;23;20287;-81
2023/12/22 14:48:40;;;;;;;1.90;1.80;;;;;;;13.25;58.54;97560.78;8366244;23;20186;-79
2023/12/22 14:52:02;;;;;;;1.37;1.37;;;;;;;13.69;57.72;97603.00;8362727;23;20206;-80
2023/12/22 14:55:23;;;;;;;1.20;1.20;;;;;;;13.66;57.95;97605.41;8362067;23;20182;-82
2023/12/22 14:58:45;;;;;;;1.30;1.30;;;;;;;13.78;57.56;97595.25;8361093;23;20217;-80
2023/12/22 15:02:06;;;;;;;1.50;1.40;;;;;;;13.65;58.20;97617.31;8363468;23;20311;-79
2023/12/22 15:05:29;;;;;;;2.90;2.33;;;;;;;13.68;58.33;97612.22;8366798;23;20248;-79
2023/12/22 15:08:52;;;;;;;2.17;2.07;;;;;;;13.30;59.58;97606.06;8369338;23;20186;-79
2023/12/22 15:12:13;;;;;;;1.50;1.50;;;;;;;13.26;58.92;97553.47;8365271;23;20213;-77
2023/12/22 15:15:35;;;;;;;2.63;2.20;;;;;;;13.26;59.97;97613.03;8365676;23;20221;-79
2023/12/22 15:18:56;;;;;;;3.27;2.10;;;;;;;13.47;59.10;97609.53;8362892;23;20269;-81
2023/12/22 15:22:19;;;;;;;1.67;1.57;;;;;;;13.69;58.37;97624.69;8363794;23;20647;-78
2023/12/22 15:25:40;;;;;;;3.20;2.20;;;;;;;13.65;58.82;97628.16;8364247;23;20265;-78
2023/12/22 15:29:02;;;;;;;2.07;1.37;;;;;;;13.35;58.98;97604.25;8363611;23;20213;-78
2023/12/22 15:32:24;;;;;;;1.60;1.60;;;;;;;13.27;59.68;97623.59;8362298;23;20229;-77
2023/12/22 15:35:45;;;;;;;1.60;1.50;;;;;;;13.39;59.35;97643.25;8363491;23;20618;-77
2023/12/22 15:39:08;;;;;;;1.90;1.67;;;;;;;13.20;59.49;97641.91;8363467;23;20190;-77
2023/12/22 15:42:29;;;;;;;1.90;1.80;;;;;;;13.67;58.81;97648.50;8362259;23;20281;-78
2023/12/22 15:45:51;;;;;;;1.57;1.47;;;;;;;13.74;58.59;97651.03;8362383;23;20206;-79
2023/12/22 15:49:12;;;;;;;1.70;1.40;;;;;;;13.28;59.65;97635.25;8362639;23;20260;-79